createdAt,value
2023-04-16T00:01:01.388Z,57.55
2023-04-16T00:03:28.110Z,60.92
2023-04-16T00:05:55.994Z,54.08
2023-04-16T00:08:26.409Z,57.13
2023-04-16T00:10:53.657Z,60.25
2023-04-16T00:13:20.352Z,57.35
2023-04-16T00:15:46.801Z,57.97
2023-04-16T00:18:13.234Z,52.13
2023-04-16T00:20:39.812Z,53.40
2023-04-16T00:23:06.312Z,55.75
2023-04-16T00:25:32.797Z,56.30
2023-04-16T00:27:59.179Z,61.00
2023-04-16T00:30:25.610Z,54.88
2023-04-16T00:32:52.067Z,57.30
2023-04-16T00:35:18.728Z,57.53
2023-04-16T00:37:47.712Z,58.45
2023-04-16T00:40:14.114Z,54.13
2023-04-16T00:42:40.604Z,59.25
2023-04-16T00:45:07.685Z,57.10
2023-04-16T00:47:34.281Z,58.80
2023-04-16T00:50:00.947Z,60.00
2023-04-16T00:52:28.579Z,56.05
2023-04-16T00:54:55.270Z,58.78
2023-04-16T00:57:23.852Z,55.83
2023-04-16T00:59:50.512Z,58.42
2023-04-16T01:02:17.155Z,58.15
2023-04-16T01:04:43.810Z,56.70
2023-04-16T01:07:10.358Z,55.50
2023-04-16T01:09:36.882Z,55.97
2023-04-16T01:12:03.485Z,56.25
2023-04-16T01:14:31.674Z,58.38
2023-04-16T01:16:58.066Z,51.85
2023-04-16T01:19:24.554Z,52.25
2023-04-16T01:21:51.036Z,55.30
2023-04-16T01:24:17.484Z,53.20
2023-04-16T01:26:43.977Z,52.25
2023-04-16T01:29:10.686Z,49.15
2023-04-16T01:31:37.309Z,49.83
2023-04-16T01:34:03.805Z,50.20
2023-04-16T01:36:30.200Z,48.50
2023-04-16T01:38:56.753Z,47.20
2023-04-16T01:41:23.205Z,47.83
2023-04-16T01:43:49.636Z,46.08
2023-04-16T01:46:23.426Z,44.35
2023-04-16T01:48:49.889Z,45.95
2023-04-16T01:51:16.399Z,45.97
2023-04-16T01:53:42.820Z,46.15
2023-04-16T01:56:09.256Z,47.75
2023-04-16T01:58:35.648Z,44.85
2023-04-16T02:01:02.197Z,43.63
2023-04-16T02:03:28.856Z,42.35
2023-04-16T02:05:55.712Z,45.30
2023-04-16T02:08:22.203Z,44.25
2023-04-16T02:10:50.139Z,47.30
2023-04-16T02:13:16.795Z,42.47
2023-04-16T02:15:53.064Z,40.70
2023-04-16T02:18:19.486Z,41.28
2023-04-16T02:20:47.112Z,40.08
2023-04-16T02:23:16.995Z,40.22
2023-04-16T02:25:45.901Z,42.38
2023-04-16T02:28:15.447Z,39.38
2023-04-16T02:30:42.623Z,38.97
2023-04-16T02:33:11.092Z,41.47
2023-04-16T02:35:39.018Z,42.35
2023-04-16T02:38:06.132Z,40.83
2023-04-16T02:40:32.717Z,40.03
2023-04-16T02:42:59.228Z,34.83
2023-04-16T02:45:25.882Z,36.30
2023-04-16T02:47:52.471Z,38.75
2023-04-16T02:50:19.018Z,38.45
2023-04-16T02:52:45.436Z,39.53
2023-04-16T02:55:12.180Z,38.70
2023-04-16T02:57:38.787Z,39.25
2023-04-16T03:00:06.047Z,36.83
2023-04-16T03:02:32.665Z,34.58
2023-04-16T03:04:59.311Z,35.42
2023-04-16T03:07:26.116Z,38.35
2023-04-16T03:09:52.667Z,38.78
2023-04-16T03:12:19.075Z,41.83
2023-04-16T03:14:45.676Z,41.05
2023-04-16T03:17:12.226Z,39.10
2023-04-16T03:19:38.620Z,39.50
2023-04-16T03:22:05.273Z,39.75
2023-04-16T03:24:32.227Z,43.20
2023-04-16T03:26:58.888Z,43.08
2023-04-16T03:29:26.697Z,43.15
2023-04-16T03:31:53.182Z,45.90
2023-04-16T03:34:19.682Z,46.08
2023-04-16T03:36:46.458Z,47.20
2023-04-16T03:39:12.892Z,47.20
2023-04-16T03:41:39.358Z,43.38
2023-04-16T03:44:05.798Z,48.90
2023-04-16T03:46:32.337Z,46.30
2023-04-16T03:48:58.849Z,44.33
2023-04-16T03:51:26.393Z,47.03
2023-04-16T03:53:52.890Z,47.67
2023-04-16T03:56:19.334Z,42.97
2023-04-16T03:58:45.818Z,41.83
2023-04-16T04:01:12.225Z,42.47
2023-04-16T04:03:38.882Z,41.17
2023-04-16T04:06:09.000Z,44.30
2023-04-16T04:08:35.814Z,46.70
2023-04-16T04:11:02.459Z,43.40
2023-04-16T04:13:28.885Z,43.05
2023-04-16T04:15:55.423Z,40.47
2023-04-16T04:18:21.913Z,42.47
2023-04-16T04:20:48.432Z,42.33
2023-04-16T04:23:15.004Z,43.20
2023-04-16T04:25:41.760Z,42.35
2023-04-16T04:28:08.288Z,44.50
2023-04-16T04:30:35.849Z,44.33
2023-04-16T04:33:02.433Z,41.17
2023-04-16T04:35:28.996Z,41.03
2023-04-16T04:37:55.653Z,43.85
2023-04-16T04:40:22.225Z,41.53
2023-04-16T04:42:48.687Z,44.28
2023-04-16T04:45:15.319Z,40.15
2023-04-16T04:47:42.001Z,40.42
2023-04-16T04:50:08.928Z,45.90
2023-04-16T04:52:35.836Z,42.53
2023-04-16T04:55:02.285Z,46.03
2023-04-16T04:57:28.818Z,44.72
2023-04-16T04:59:55.210Z,48.08
2023-04-16T05:02:21.734Z,47.05
2023-04-16T05:04:48.297Z,48.80
2023-04-16T05:07:14.799Z,45.05
2023-04-16T05:09:41.519Z,50.28
2023-04-16T05:12:08.013Z,48.55
2023-04-16T05:14:34.916Z,48.70
2023-04-16T05:17:01.379Z,47.05
2023-04-16T05:19:27.962Z,49.97
2023-04-16T05:21:54.520Z,48.88
2023-04-16T05:24:21.046Z,44.92
2023-04-16T05:26:47.476Z,43.83
2023-04-16T05:29:13.879Z,45.38
2023-04-16T05:31:41.030Z,48.22
2023-04-16T05:34:07.476Z,44.58
2023-04-16T05:36:33.922Z,44.60
2023-04-16T05:39:00.450Z,44.38
2023-04-16T05:41:26.890Z,46.67
2023-04-16T05:43:53.377Z,41.72
2023-04-16T05:46:19.947Z,44.17
2023-04-16T05:48:46.880Z,47.33
2023-04-16T05:51:13.268Z,45.60
2023-04-16T05:53:39.774Z,46.70
2023-04-16T05:56:06.763Z,48.17
2023-04-16T05:58:33.311Z,44.78
2023-04-16T06:01:01.264Z,45.53
2023-04-16T06:03:27.819Z,51.97
2023-04-16T06:05:54.569Z,49.38
2023-04-16T06:08:21.212Z,48.33
2023-04-16T06:10:47.682Z,43.95
2023-04-16T06:13:14.245Z,41.78
2023-04-16T06:15:40.846Z,42.13
2023-04-16T06:18:07.400Z,44.42
2023-04-16T06:20:33.921Z,42.83
2023-04-16T06:23:00.622Z,44.75
2023-04-16T06:25:27.108Z,45.90
2023-04-16T06:27:53.555Z,44.50
2023-04-16T06:30:20.047Z,45.25
2023-04-16T06:32:46.709Z,47.22
2023-04-16T06:35:13.414Z,46.63
2023-04-16T06:37:39.811Z,46.92
2023-04-16T06:40:06.977Z,45.50
2023-04-16T06:42:33.534Z,48.38
2023-04-16T06:44:59.923Z,48.00
2023-04-16T06:47:27.155Z,47.72
2023-04-16T06:49:53.774Z,46.00
2023-04-16T06:52:20.250Z,45.40
2023-04-16T06:54:46.747Z,49.35
2023-04-16T06:57:13.234Z,45.78
2023-04-16T06:59:39.835Z,45.28
2023-04-16T07:02:09.160Z,45.78
2023-04-16T07:04:35.867Z,47.00
2023-04-16T07:07:02.343Z,43.28
2023-04-16T07:09:28.785Z,44.97
2023-04-16T07:11:55.351Z,45.58
2023-04-16T07:14:21.867Z,46.97
2023-04-16T07:16:48.430Z,43.00
2023-04-16T07:19:14.957Z,43.60
2023-04-16T07:21:43.647Z,47.03
2023-04-16T07:24:11.755Z,43.55
2023-04-16T07:26:38.264Z,44.28
2023-04-16T07:29:04.778Z,43.90
2023-04-16T07:31:31.485Z,42.15
2023-04-16T07:33:58.505Z,40.67
2023-04-16T07:36:25.033Z,46.38
2023-04-16T07:38:51.473Z,39.60
2023-04-16T07:41:17.990Z,40.08
2023-04-16T07:43:44.420Z,38.53
2023-04-16T07:46:11.015Z,40.33
2023-04-16T07:48:37.534Z,39.65
2023-04-16T07:51:04.059Z,38.72
2023-04-16T07:53:30.508Z,43.65
2023-04-16T07:55:57.029Z,38.58
2023-04-16T07:58:23.513Z,37.65
2023-04-16T08:00:51.060Z,39.50
2023-04-16T08:03:18.263Z,37.20
2023-04-16T08:05:44.942Z,37.40
2023-04-16T08:08:11.577Z,39.22
2023-04-16T08:10:39.011Z,36.72
2023-04-16T08:13:05.822Z,35.63
2023-04-16T08:15:32.380Z,36.75
2023-04-16T08:18:00.413Z,37.58
2023-04-16T08:20:27.005Z,34.95
2023-04-16T08:22:54.036Z,33.33
2023-04-16T08:25:20.905Z,35.83
2023-04-16T08:27:47.439Z,36.47
2023-04-16T08:30:15.183Z,36.13
2023-04-16T08:32:41.723Z,36.88
2023-04-16T08:35:08.663Z,37.63
2023-04-16T08:37:35.134Z,37.22
2023-04-16T08:40:02.292Z,31.90
2023-04-16T08:42:40.900Z,33.38
2023-04-16T08:45:17.796Z,31.23
2023-04-16T08:47:49.111Z,31.10
2023-04-16T08:50:17.915Z,31.98
2023-04-16T08:52:52.935Z,32.22
2023-04-16T08:55:23.613Z,36.90
2023-04-16T08:57:55.033Z,33.42
2023-04-16T09:00:21.779Z,36.67
2023-04-16T09:02:48.812Z,34.28
2023-04-16T09:05:25.504Z,34.47
2023-04-16T09:07:52.867Z,32.28
2023-04-16T09:10:20.002Z,33.90
2023-04-16T09:12:46.505Z,32.78
2023-04-16T09:15:13.800Z,31.27
2023-04-16T09:17:40.600Z,33.58
2023-04-16T09:20:11.296Z,33.30
2023-04-16T09:22:38.911Z,33.35
2023-04-16T09:25:06.168Z,32.70
2023-04-16T09:27:32.831Z,31.65
2023-04-16T09:29:59.360Z,28.63
2023-04-16T09:32:27.398Z,32.22
2023-04-16T09:34:58.025Z,31.50
2023-04-16T09:37:33.971Z,30.17
2023-04-16T09:40:02.202Z,30.88
2023-04-16T09:42:30.939Z,31.13
2023-04-16T09:45:00.033Z,27.90
2023-04-16T09:47:45.065Z,29.60
2023-04-16T09:50:18.668Z,31.10
2023-04-16T09:52:48.680Z,31.67
2023-04-16T09:55:15.934Z,34.72
2023-04-16T09:57:42.888Z,30.02
2023-04-16T10:00:10.445Z,32.95
2023-04-16T10:02:41.723Z,31.38
2023-04-16T10:05:09.024Z,23.48
2023-04-16T10:07:36.534Z,31.08
2023-04-16T10:10:03.770Z,32.45
2023-04-16T10:12:32.699Z,31.17
2023-04-16T10:15:01.618Z,24.73
2023-04-16T10:17:30.515Z,35.08
2023-04-16T10:19:58.131Z,32.05
2023-04-16T10:22:24.756Z,31.35
2023-04-16T10:24:51.711Z,31.65
2023-04-16T10:27:19.477Z,33.65
2023-04-16T10:29:46.658Z,29.58
2023-04-16T10:32:13.445Z,32.38
2023-04-16T10:34:40.157Z,31.88
2023-04-16T10:37:06.619Z,35.67
2023-04-16T10:39:37.379Z,30.73
2023-04-16T10:42:13.063Z,31.10
2023-04-16T10:44:43.501Z,31.17
2023-04-16T10:47:15.708Z,31.90
2023-04-16T10:49:43.547Z,33.88
2023-04-16T10:52:18.273Z,31.17
2023-04-16T10:54:46.746Z,30.63
2023-04-16T10:57:17.737Z,29.33
2023-04-16T10:59:44.747Z,31.73
2023-04-16T11:02:16.349Z,32.25
2023-04-16T11:04:45.421Z,31.33
2023-04-16T11:07:15.300Z,31.48
2023-04-16T11:09:56.316Z,35.85
2023-04-16T11:12:39.686Z,37.65
2023-04-16T11:15:10.326Z,37.10
2023-04-16T11:17:44.051Z,35.15
2023-04-16T11:20:20.743Z,32.30
2023-04-16T11:22:48.727Z,32.97
2023-04-16T11:25:25.916Z,30.95
2023-04-16T11:27:53.090Z,37.25
2023-04-16T11:30:28.597Z,32.50
2023-04-16T11:32:55.310Z,31.83
2023-04-16T11:35:22.048Z,29.35
2023-04-16T11:37:48.884Z,27.95
2023-04-16T11:40:15.768Z,33.15
2023-04-16T11:42:42.790Z,31.08
2023-04-16T11:45:11.032Z,30.95
2023-04-16T11:47:52.032Z,29.65
2023-04-16T11:50:23.619Z,30.88
2023-04-16T11:52:51.260Z,31.55
2023-04-16T11:55:17.803Z,30.77
2023-04-16T11:57:45.615Z,36.47
2023-04-16T12:00:15.754Z,31.67
2023-04-16T12:02:46.088Z,33.65
2023-04-16T12:05:39.144Z,33.00
2023-04-16T12:10:35.374Z,31.20
2023-04-16T12:13:15.702Z,37.00
2023-04-16T12:15:49.475Z,38.85
2023-04-16T12:18:17.104Z,32.53
2023-04-16T12:20:44.551Z,33.20
2023-04-16T12:23:22.062Z,38.13
2023-04-16T12:25:50.109Z,35.22
2023-04-16T12:28:33.724Z,36.28
2023-04-16T12:31:00.708Z,31.67
2023-04-16T12:33:27.441Z,33.13
2023-04-16T12:35:54.123Z,29.88
2023-04-16T12:38:22.759Z,34.15
2023-04-16T12:40:50.736Z,31.90
2023-04-16T12:43:17.972Z,31.67
2023-04-16T12:45:44.670Z,30.40
2023-04-16T12:48:11.565Z,31.20
2023-04-16T12:50:39.602Z,28.40
2023-04-16T12:53:06.236Z,28.95
2023-04-16T12:55:32.729Z,27.92
2023-04-16T12:57:59.173Z,30.58
2023-04-16T13:00:25.854Z,26.08
2023-04-16T13:02:52.545Z,26.25
2023-04-16T13:05:19.575Z,25.42
2023-04-16T13:07:46.210Z,26.08
2023-04-16T13:10:13.400Z,25.15
2023-04-16T13:12:40.083Z,23.77
2023-04-16T13:15:07.137Z,28.17
2023-04-16T13:17:33.682Z,23.42
2023-04-16T13:20:00.223Z,26.67
2023-04-16T13:22:26.735Z,25.42
2023-04-16T13:24:53.226Z,26.02
2023-04-16T13:27:20.345Z,25.55
2023-04-16T13:29:47.153Z,26.35
2023-04-16T13:32:14.693Z,27.27
2023-04-16T13:34:41.307Z,24.73
2023-04-16T13:37:07.948Z,22.20
2023-04-16T13:39:34.415Z,25.30
2023-04-16T13:42:01.125Z,25.40
2023-04-16T13:44:27.629Z,25.55
2023-04-16T13:46:54.318Z,23.30
2023-04-16T13:49:20.810Z,23.63
2023-04-16T13:51:47.291Z,22.15
2023-04-16T13:54:13.873Z,23.92
2023-04-16T13:56:40.913Z,26.85
2023-04-16T13:59:07.998Z,22.27
2023-04-16T14:01:34.720Z,26.33
2023-04-16T14:04:06.425Z,21.75
2023-04-16T14:06:34.177Z,24.67
2023-04-16T14:09:01.277Z,23.77
2023-04-16T14:11:27.782Z,26.20
2023-04-16T14:13:54.326Z,26.08
2023-04-16T14:16:20.971Z,25.52
2023-04-16T14:18:47.498Z,25.48
2023-04-16T14:21:14.023Z,24.95
2023-04-16T14:23:41.196Z,20.75
2023-04-16T14:26:07.766Z,23.15
2023-04-16T14:28:35.482Z,27.00
2023-04-16T14:31:02.063Z,25.05
2023-04-16T14:33:28.554Z,24.33
2023-04-16T14:35:59.521Z,24.38
2023-04-16T14:38:27.201Z,26.15
2023-04-16T14:40:53.635Z,23.63
2023-04-16T14:43:20.136Z,27.83
2023-04-16T14:45:48.797Z,24.15
2023-04-16T14:48:15.239Z,23.38
2023-04-16T14:50:43.991Z,24.65
2023-04-16T14:53:13.562Z,23.52
2023-04-16T14:55:39.996Z,23.63
2023-04-16T14:58:06.503Z,28.63
2023-04-16T15:00:34.780Z,22.63
2023-04-16T15:03:01.511Z,22.58
2023-04-16T15:05:28.244Z,23.35
2023-04-16T15:07:57.504Z,23.02
2023-04-16T15:10:24.019Z,22.52
2023-04-16T15:12:50.494Z,22.58
2023-04-16T15:15:17.571Z,23.15
2023-04-16T15:17:44.110Z,21.33
2023-04-16T15:20:11.304Z,23.30
2023-04-16T15:22:38.341Z,22.67
2023-04-16T15:25:06.300Z,26.52
2023-04-16T15:27:32.781Z,22.65
2023-04-16T15:29:59.353Z,21.08
2023-04-16T15:32:25.844Z,23.33
2023-04-16T15:34:52.378Z,21.92
2023-04-16T15:37:18.887Z,22.50
2023-04-16T15:39:47.460Z,22.17
2023-04-16T15:42:14.037Z,22.83
2023-04-16T15:44:40.972Z,24.50
2023-04-16T15:47:08.657Z,21.25
2023-04-16T15:49:35.533Z,20.83
2023-04-16T15:52:02.092Z,20.40
2023-04-16T15:54:29.284Z,23.83
2023-04-16T15:56:55.807Z,22.27
2023-04-16T15:59:22.316Z,22.05
2023-04-16T16:01:48.990Z,21.20
2023-04-16T16:04:16.165Z,22.88
2023-04-16T16:06:44.130Z,22.05
2023-04-16T16:09:11.146Z,22.80
2023-04-16T16:11:38.492Z,23.48
2023-04-16T16:14:04.888Z,20.83
2023-04-16T16:16:34.980Z,20.80
2023-04-16T16:19:01.540Z,24.52
2023-04-16T16:21:30.120Z,22.70
2023-04-16T16:23:56.975Z,23.95
2023-04-16T16:26:23.378Z,22.70
2023-04-16T16:28:49.822Z,22.50
2023-04-16T16:31:16.586Z,23.85
2023-04-16T16:33:43.239Z,21.45
2023-04-16T16:36:10.864Z,20.52
2023-04-16T16:38:38.027Z,20.70
2023-04-16T16:41:04.590Z,22.02
2023-04-16T16:43:31.056Z,22.05
2023-04-16T16:45:57.493Z,24.98
2023-04-16T16:48:24.013Z,22.35
2023-04-16T16:50:50.574Z,25.58
2023-04-16T16:53:17.062Z,22.63
2023-04-16T16:55:43.606Z,22.15
2023-04-16T16:58:11.029Z,24.08
2023-04-16T17:00:37.924Z,23.40
2023-04-16T17:03:04.686Z,22.83
2023-04-16T17:05:31.352Z,21.00
2023-04-16T17:07:57.824Z,23.65
2023-04-16T17:10:24.520Z,22.33
2023-04-16T17:12:51.882Z,22.65
2023-04-16T17:15:21.248Z,20.63
2023-04-16T17:17:48.598Z,22.40
2023-04-16T17:20:15.733Z,22.33
2023-04-16T17:22:42.396Z,20.83
2023-04-16T17:25:09.231Z,19.73
2023-04-16T17:27:35.871Z,21.90
2023-04-16T17:30:06.755Z,23.55
2023-04-16T17:32:33.326Z,24.88
2023-04-16T17:35:01.076Z,24.88
2023-04-16T17:37:27.696Z,24.48
2023-04-16T17:39:54.236Z,22.88
2023-04-16T17:42:20.927Z,21.25
2023-04-16T17:44:48.664Z,22.15
2023-04-16T17:47:15.430Z,22.38
2023-04-16T17:49:42.136Z,25.55
2023-04-16T17:52:08.589Z,26.38
2023-04-16T17:54:35.310Z,26.40
2023-04-16T17:57:02.237Z,27.05
2023-04-16T17:59:29.127Z,26.50
2023-04-16T18:01:56.722Z,27.33
2023-04-16T18:04:23.415Z,25.42
2023-04-16T18:06:50.357Z,25.92
2023-04-16T18:09:16.988Z,26.77
2023-04-16T18:11:43.619Z,26.50
2023-04-16T18:14:11.829Z,26.33
2023-04-16T18:16:38.462Z,25.27
2023-04-16T18:19:05.645Z,25.98
2023-04-16T18:21:32.137Z,26.00
2023-04-16T18:24:00.803Z,28.13
2023-04-16T18:26:29.720Z,28.80
2023-04-16T18:28:56.517Z,24.05
2023-04-16T18:31:23.182Z,26.30
2023-04-16T18:33:57.427Z,28.42
2023-04-16T18:36:25.028Z,26.02
2023-04-16T18:39:00.845Z,27.40
2023-04-16T18:41:28.183Z,25.52
2023-04-16T18:43:54.862Z,28.13
2023-04-16T18:46:21.292Z,29.13
2023-04-16T18:48:47.892Z,28.45
2023-04-16T18:51:16.160Z,27.98
2023-04-16T18:53:44.500Z,27.13
2023-04-16T18:56:11.733Z,30.60
2023-04-16T18:58:38.221Z,30.08
2023-04-16T19:01:05.378Z,27.83
2023-04-16T19:03:32.196Z,29.88
2023-04-16T19:05:58.997Z,29.38
2023-04-16T19:08:25.390Z,31.58
2023-04-16T19:10:51.894Z,27.63
2023-04-16T19:13:18.555Z,28.40
2023-04-16T19:15:45.342Z,29.08
2023-04-16T19:18:11.896Z,30.08
2023-04-16T19:20:38.407Z,29.65
2023-04-16T19:23:05.807Z,30.73
2023-04-16T19:25:32.664Z,32.67
2023-04-16T19:27:59.328Z,31.80
2023-04-16T19:30:26.467Z,29.27
2023-04-16T19:32:55.146Z,32.63
2023-04-16T19:35:22.006Z,31.80
2023-04-16T19:37:48.553Z,30.77
2023-04-16T19:40:15.032Z,31.25
2023-04-16T19:42:41.858Z,32.47
2023-04-16T19:45:08.477Z,29.15
2023-04-16T19:47:34.924Z,35.15
2023-04-16T19:50:01.567Z,31.15
2023-04-16T19:52:27.961Z,30.05
2023-04-16T19:54:54.697Z,30.88
2023-04-16T19:57:21.188Z,32.30
2023-04-16T19:59:48.038Z,31.92
2023-04-16T20:02:14.703Z,30.98
2023-04-16T20:04:41.182Z,29.00
2023-04-16T20:07:07.701Z,30.98
2023-04-16T20:09:34.609Z,30.38
2023-04-16T20:12:01.811Z,28.23
2023-04-16T20:14:28.281Z,28.30
2023-04-16T20:16:54.921Z,28.42
2023-04-16T20:19:22.067Z,29.00
2023-04-16T20:21:48.469Z,30.17
2023-04-16T20:24:15.553Z,30.70
2023-04-16T20:26:42.081Z,25.70
2023-04-16T20:29:10.281Z,29.80
2023-04-16T20:31:37.007Z,27.00
2023-04-16T20:34:03.863Z,29.92
2023-04-16T20:36:30.380Z,27.35
2023-04-16T20:38:56.854Z,27.73
2023-04-16T20:41:25.128Z,28.08
2023-04-16T20:43:52.642Z,28.15
2023-04-16T20:46:24.063Z,25.77
2023-04-16T20:48:51.226Z,28.50
2023-04-16T20:51:17.786Z,22.67
2023-04-16T20:53:44.302Z,25.65
2023-04-16T20:56:14.605Z,24.83
2023-04-16T20:58:41.527Z,28.10
2023-04-16T21:01:07.984Z,27.98
2023-04-16T21:03:34.639Z,24.70
2023-04-16T21:06:01.834Z,26.05
2023-04-16T21:08:28.324Z,27.88
2023-04-16T21:10:54.852Z,25.77
2023-04-16T21:13:21.729Z,28.35
2023-04-16T21:15:48.346Z,26.33
2023-04-16T21:18:17.022Z,29.90
2023-04-16T21:20:43.519Z,30.67
2023-04-16T21:23:09.987Z,27.58
2023-04-16T21:25:36.795Z,26.25
2023-04-16T21:28:03.221Z,28.58
2023-04-16T21:30:29.683Z,27.77
2023-04-16T21:32:56.165Z,26.10
2023-04-16T21:35:22.683Z,26.90
2023-04-16T21:37:49.114Z,27.27
2023-04-16T21:40:15.871Z,26.05
2023-04-16T21:42:42.574Z,26.50
2023-04-16T21:45:09.607Z,30.55
2023-04-16T21:47:36.882Z,24.77
2023-04-16T21:50:03.946Z,29.80
2023-04-16T21:52:30.508Z,27.77
2023-04-16T21:54:56.892Z,26.58
2023-04-16T21:57:23.347Z,25.27
2023-04-16T21:59:49.894Z,27.98
2023-04-16T22:02:16.500Z,24.90
2023-04-16T22:04:43.613Z,26.23
2023-04-16T22:07:10.133Z,26.60
2023-04-16T22:09:36.674Z,24.80
2023-04-16T22:12:03.266Z,26.95
2023-04-16T22:14:30.159Z,28.85
2023-04-16T22:16:56.792Z,24.85
2023-04-16T22:19:23.330Z,26.30
2023-04-16T22:21:49.831Z,25.80
2023-04-16T22:24:16.358Z,29.70
2023-04-16T22:26:42.781Z,27.38
2023-04-16T22:29:09.401Z,25.70
2023-04-16T22:31:36.154Z,25.67
2023-04-16T22:34:03.566Z,27.90
2023-04-16T22:36:31.184Z,28.30
2023-04-16T22:38:57.669Z,27.95
2023-04-16T22:41:24.116Z,27.83
2023-04-16T22:43:52.495Z,30.25
2023-04-16T22:46:22.492Z,29.40
2023-04-16T22:48:49.003Z,27.02
2023-04-16T22:51:15.396Z,31.80
2023-04-16T22:53:41.841Z,31.38
2023-04-16T22:56:08.251Z,31.23
2023-04-16T22:58:34.789Z,30.98
2023-04-16T23:01:01.639Z,32.17
2023-04-16T23:03:28.281Z,36.40
2023-04-16T23:05:54.782Z,33.88
2023-04-16T23:08:21.286Z,35.67
2023-04-16T23:10:47.696Z,35.83
2023-04-16T23:13:14.105Z,35.00
2023-04-16T23:15:40.613Z,33.60
2023-04-16T23:18:07.465Z,35.55
2023-04-16T23:20:33.916Z,34.67
2023-04-16T23:23:00.320Z,32.70
2023-04-16T23:25:26.816Z,35.47
2023-04-16T23:27:53.248Z,36.47
2023-04-16T23:30:19.920Z,33.10
2023-04-16T23:32:46.456Z,33.15
2023-04-16T23:35:12.957Z,37.30
2023-04-16T23:37:39.498Z,34.63
2023-04-16T23:40:06.996Z,37.97
2023-04-16T23:42:33.403Z,33.88
2023-04-16T23:44:59.915Z,33.47
2023-04-16T23:47:26.490Z,36.40
2023-04-16T23:49:52.920Z,35.03
2023-04-16T23:52:19.341Z,36.42
2023-04-16T23:54:45.850Z,35.83
2023-04-16T23:57:12.307Z,37.20
2023-04-16T23:59:38.740Z,35.20
